Springfield, Georgia
Current Conditions -  °F | °C
As of 3:53 PM on Sunday 23 Nov 2014 (Local Time) from KSAV Reporting Station
Haze Haze  
Wind Chill: 22°   Ceiling: 500
Heat Index: 22°   Visibility: 2.5mi
Dew Point: 19°   Wind: 8mph
Humidity: 87%   Direction: 100°E
Pressure: 29.85"   Gusts: NA
Location:  32.37°N, 81.31°W
Report Text: KSAV 232053Z 10007KT 2 1/2SM BR OVC005 22/19 A2985 RMK AO2 CIG 004V009 SLP108 60000 T02170194 56030
Loading
Personal Weather Stations






























Interactive Weather Map New forecast layout! Learn more

10-Day Weather Forecast

Advertisements
Track Severe Weather on mobile